createdAt,value
2017-09-05T00:02:07.755Z,99.90
2017-09-05T00:04:36.075Z,99.90
2017-09-05T00:07:04.398Z,99.90
2017-09-05T00:09:38.240Z,99.90
2017-09-05T00:12:21.819Z,99.90
2017-09-05T00:14:55.860Z,99.90
2017-09-05T00:17:25.015Z,99.90
2017-09-05T00:19:54.861Z,99.90
2017-09-05T00:22:28.201Z,99.90
2017-09-05T00:24:56.783Z,99.90
2017-09-05T00:27:25.072Z,99.90
2017-09-05T00:29:53.402Z,99.90
2017-09-05T00:32:21.792Z,99.90
2017-09-05T00:34:50.442Z,99.90
2017-09-05T00:37:18.918Z,99.90
2017-09-05T00:39:47.198Z,99.90
2017-09-05T00:42:16.623Z,99.90
2017-09-05T00:44:48.425Z,99.90
2017-09-05T00:47:17.301Z,99.90
2017-09-05T00:49:45.561Z,99.90
2017-09-05T00:52:13.870Z,99.90
2017-09-05T00:54:44.032Z,99.90
2017-09-05T00:57:12.287Z,99.90
2017-09-05T00:59:41.014Z,99.90
2017-09-05T01:02:09.456Z,99.90
2017-09-05T01:04:39.222Z,99.90
2017-09-05T01:07:07.604Z,99.90
2017-09-05T01:09:35.906Z,99.90
2017-09-05T01:12:04.482Z,99.90
2017-09-05T01:14:33.544Z,99.90
2017-09-05T01:17:01.847Z,99.90
2017-09-05T01:19:30.148Z,99.90
2017-09-05T01:21:59.981Z,99.90
2017-09-05T01:24:28.662Z,99.90
2017-09-05T01:26:57.543Z,99.90
2017-09-05T01:29:25.860Z,99.90
2017-09-05T01:31:55.581Z,99.90
2017-09-05T01:34:23.932Z,99.90
2017-09-05T01:36:53.188Z,99.90
2017-09-05T01:39:21.793Z,99.90
2017-09-05T01:41:50.100Z,99.90
2017-09-05T01:44:18.433Z,99.90
2017-09-05T01:46:46.829Z,99.90
2017-09-05T01:49:15.660Z,99.90
2017-09-05T01:51:44.466Z,99.90
2017-09-05T01:54:13.891Z,99.90
2017-09-05T01:56:42.555Z,99.90
2017-09-05T01:59:10.962Z,99.90
2017-09-05T02:01:39.838Z,99.90
2017-09-05T02:04:08.198Z,99.90
2017-09-05T02:06:37.420Z,99.90
2017-09-05T02:09:06.079Z,99.90
2017-09-05T02:11:34.351Z,99.90
2017-09-05T02:14:04.450Z,99.90
2017-09-05T02:16:32.751Z,99.90
2017-09-05T02:19:01.016Z,99.90
2017-09-05T02:21:30.356Z,99.90
2017-09-05T02:23:58.694Z,99.90
2017-09-05T02:26:27.308Z,99.90
2017-09-05T02:28:55.613Z,99.90
2017-09-05T02:31:23.925Z,99.90
2017-09-05T02:33:53.027Z,99.90
2017-09-05T02:36:22.139Z,99.90
2017-09-05T02:38:51.235Z,99.90
2017-09-05T02:41:19.554Z,99.90
2017-09-05T02:43:47.901Z,99.90
2017-09-05T02:46:17.390Z,99.90
2017-09-05T02:48:45.683Z,99.90
2017-09-05T02:51:14.265Z,99.90
2017-09-05T02:53:42.597Z,99.90
2017-09-05T02:56:11.786Z,99.90
2017-09-05T02:58:40.429Z,99.90
2017-09-05T03:01:08.740Z,99.90
2017-09-05T03:03:37.352Z,99.90
2017-09-05T03:06:06.052Z,99.90
2017-09-05T03:08:34.500Z,99.90
2017-09-05T03:11:03.695Z,99.90
2017-09-05T03:13:32.404Z,99.90
2017-09-05T03:16:01.160Z,99.90
2017-09-05T03:18:29.891Z,99.90
2017-09-05T03:20:58.245Z,99.90
2017-09-05T03:23:26.909Z,99.90
2017-09-05T03:25:55.565Z,99.90
2017-09-05T03:28:24.703Z,99.90
2017-09-05T03:30:53.810Z,99.90
2017-09-05T03:33:22.124Z,99.90
2017-09-05T03:35:50.810Z,99.90
2017-09-05T03:38:20.182Z,99.90
2017-09-05T03:40:48.898Z,99.90
2017-09-05T03:43:17.876Z,99.90
2017-09-05T03:45:46.300Z,99.90
2017-09-05T03:48:15.391Z,99.90
2017-09-05T03:50:44.366Z,99.90
2017-09-05T03:53:12.666Z,99.90
2017-09-05T03:55:41.853Z,99.90
2017-09-05T03:58:11.341Z,99.90
2017-09-05T04:00:40.454Z,99.90
2017-09-05T04:03:08.731Z,99.90
2017-09-05T04:05:37.096Z,99.90
2017-09-05T04:08:05.680Z,99.90
2017-09-05T04:10:34.322Z,99.90
2017-09-05T04:13:02.802Z,99.90
2017-09-05T04:15:31.219Z,99.90
2017-09-05T04:17:59.763Z,99.90
2017-09-05T04:20:29.153Z,99.90
2017-09-05T04:22:57.848Z,99.90
2017-09-05T04:25:27.479Z,99.90
2017-09-05T04:27:55.849Z,99.90
2017-09-05T04:30:24.476Z,99.90
2017-09-05T04:32:52.752Z,99.90
2017-09-05T04:35:21.281Z,99.90
2017-09-05T04:37:49.734Z,99.90
2017-09-05T04:40:18.028Z,99.90
2017-09-05T04:42:47.540Z,99.90
2017-09-05T04:45:16.892Z,99.90
2017-09-05T04:47:45.287Z,99.90
2017-09-05T04:50:13.659Z,99.90
2017-09-05T04:52:42.002Z,99.90
2017-09-05T04:55:10.673Z,99.90
2017-09-05T04:57:39.076Z,99.90
2017-09-05T05:00:07.516Z,99.90
2017-09-05T05:02:36.519Z,99.90
2017-09-05T05:05:04.857Z,99.90
2017-09-05T05:07:33.186Z,99.90
2017-09-05T05:10:01.562Z,99.90
2017-09-05T05:12:29.862Z,99.90
2017-09-05T05:14:58.800Z,99.90
2017-09-05T05:17:27.587Z,99.90
2017-09-05T05:19:56.055Z,99.90
2017-09-05T05:22:24.725Z,99.90
2017-09-05T05:24:53.051Z,99.90
2017-09-05T05:27:21.823Z,99.90
2017-09-05T05:29:50.140Z,99.90
2017-09-05T05:32:18.790Z,99.90
2017-09-05T05:34:47.424Z,99.90
2017-09-05T05:37:16.030Z,99.90
2017-09-05T05:39:44.908Z,99.90
2017-09-05T05:42:13.337Z,99.90
2017-09-05T05:44:42.714Z,99.90
2017-09-05T05:47:11.392Z,99.90
2017-09-05T05:49:39.692Z,99.90
2017-09-05T05:52:08.273Z,99.90
2017-09-05T05:54:36.586Z,99.90
2017-09-05T05:57:04.887Z,99.90
2017-09-05T05:59:33.538Z,99.90
2017-09-05T06:02:03.498Z,99.90
2017-09-05T06:04:31.779Z,99.90
2017-09-05T06:07:00.926Z,99.90
2017-09-05T06:09:29.212Z,99.90
2017-09-05T06:11:58.523Z,99.90
2017-09-05T06:14:26.861Z,99.90
2017-09-05T06:16:55.184Z,99.90
2017-09-05T06:19:24.196Z,99.90
2017-09-05T06:21:52.741Z,99.90
2017-09-05T06:24:21.409Z,99.90
2017-09-05T06:26:49.709Z,99.90
2017-09-05T06:29:19.622Z,99.90
2017-09-05T06:31:48.808Z,99.90
2017-09-05T06:34:17.141Z,99.90
2017-09-05T06:36:45.784Z,99.90
2017-09-05T06:39:15.495Z,99.90
2017-09-05T06:41:43.816Z,99.90
2017-09-05T06:44:12.626Z,99.90
2017-09-05T06:46:41.247Z,99.90
2017-09-05T06:49:09.623Z,99.90
2017-09-05T06:51:38.515Z,99.90
2017-09-05T06:54:08.547Z,99.90
2017-09-05T06:56:37.133Z,99.90
2017-09-05T06:59:05.463Z,99.90
2017-09-05T07:01:34.733Z,99.90
2017-09-05T07:04:03.029Z,99.90
2017-09-05T07:06:31.377Z,99.90
2017-09-05T07:09:00.043Z,99.90
2017-09-05T07:11:28.964Z,99.90
2017-09-05T07:13:57.874Z,99.90
2017-09-05T07:16:27.111Z,99.90
2017-09-05T07:18:55.425Z,99.90
2017-09-05T07:21:24.798Z,99.90
2017-09-05T07:23:53.874Z,99.90
2017-09-05T07:26:22.187Z,99.90
2017-09-05T07:28:50.528Z,99.90
2017-09-05T07:31:18.860Z,99.90
2017-09-05T07:33:47.473Z,99.90
2017-09-05T07:36:17.075Z,99.90
2017-09-05T07:38:45.365Z,99.90
2017-09-05T07:41:13.946Z,99.90
2017-09-05T07:43:42.229Z,99.90
2017-09-05T07:46:10.932Z,99.90
2017-09-05T07:48:39.560Z,99.90
2017-09-05T07:51:08.660Z,99.90
2017-09-05T07:53:36.919Z,99.90
2017-09-05T07:56:05.202Z,99.90
2017-09-05T07:58:34.089Z,99.40
2017-09-05T08:01:02.822Z,99.10
2017-09-05T08:03:31.104Z,98.40
2017-09-05T08:05:59.430Z,96.90
2017-09-05T08:08:28.462Z,96.90
2017-09-05T08:10:57.066Z,96.60
2017-09-05T08:13:25.733Z,96.70
2017-09-05T08:15:54.056Z,96.00
2017-09-05T08:18:23.220Z,95.90
2017-09-05T08:20:52.191Z,96.10
2017-09-05T08:23:20.856Z,95.40
2017-09-05T08:25:49.168Z,95.60
2017-09-05T08:28:17.836Z,95.50
2017-09-05T08:30:46.139Z,95.50
2017-09-05T08:33:14.439Z,95.80
2017-09-05T08:35:43.098Z,94.00
2017-09-05T08:38:11.383Z,94.40
2017-09-05T08:40:39.708Z,94.50
2017-09-05T08:43:07.980Z,93.90
2017-09-05T08:45:36.350Z,93.10
2017-09-05T08:48:05.068Z,92.60
2017-09-05T08:50:34.235Z,90.70
2017-09-05T08:53:03.263Z,90.70
2017-09-05T08:55:31.555Z,90.80
2017-09-05T08:57:59.859Z,90.40
2017-09-05T09:00:28.881Z,90.20
2017-09-05T09:02:57.202Z,90.40
2017-09-05T09:05:25.490Z,89.30
2017-09-05T09:07:53.820Z,89.80
2017-09-05T09:10:22.101Z,89.80
2017-09-05T09:12:51.741Z,89.30
2017-09-05T09:15:20.807Z,89.10
2017-09-05T09:17:49.578Z,87.40
2017-09-05T09:20:18.521Z,88.00
2017-09-05T09:22:47.308Z,88.60
2017-09-05T09:25:15.996Z,88.00
2017-09-05T09:27:44.288Z,87.90
2017-09-05T09:30:12.567Z,85.30
2017-09-05T09:32:41.715Z,84.00
2017-09-05T09:35:10.443Z,83.90
2017-09-05T09:37:39.118Z,83.00
2017-09-05T09:40:07.542Z,82.40
2017-09-05T09:42:37.230Z,81.10
2017-09-05T09:45:05.545Z,80.80
2017-09-05T09:47:33.814Z,79.90
2017-09-05T09:50:02.372Z,80.80
2017-09-05T09:52:30.665Z,78.40
2017-09-05T09:54:58.996Z,76.10
2017-09-05T09:57:27.333Z,75.60
2017-09-05T09:59:55.616Z,73.80
2017-09-05T10:02:25.410Z,73.60
2017-09-05T10:04:53.700Z,73.50
2017-09-05T10:07:22.057Z,72.90
2017-09-05T10:09:50.364Z,70.90
2017-09-05T10:12:18.780Z,70.60
2017-09-05T10:14:48.028Z,68.90
2017-09-05T10:17:16.367Z,67.80
2017-09-05T10:19:44.669Z,67.40
2017-09-05T10:22:13.717Z,67.80
2017-09-05T10:24:42.245Z,66.30
2017-09-05T10:27:10.894Z,64.80
2017-09-05T10:29:39.600Z,63.40
2017-09-05T10:32:07.894Z,62.90
2017-09-05T10:34:36.563Z,63.40
2017-09-05T10:37:04.909Z,62.10
2017-09-05T10:39:33.189Z,61.90
2017-09-05T10:42:01.482Z,60.40
2017-09-05T10:44:29.803Z,59.70
2017-09-05T10:51:57.801Z,55.70
2017-09-05T10:54:27.279Z,70.50
2017-09-05T10:56:56.718Z,54.80
2017-09-05T10:59:25.485Z,55.00
2017-09-05T11:01:53.790Z,49.40
2017-09-05T11:11:52.682Z,43.70
2017-09-05T11:14:20.999Z,44.10
2017-09-05T11:16:49.311Z,43.40
2017-09-05T11:19:18.509Z,42.60
2017-09-05T11:21:46.772Z,42.90
2017-09-05T11:24:15.392Z,40.50
2017-09-05T11:33:33.931Z,38.80
2017-09-05T11:36:02.329Z,38.30
2017-09-05T11:38:30.904Z,37.20
2017-09-05T11:40:59.201Z,36.20
2017-09-05T11:45:57.882Z,34.30
2017-09-05T11:53:25.497Z,54.40
2017-09-05T11:58:23.341Z,72.50
2017-09-05T12:00:51.661Z,31.30
2017-09-05T12:03:20.496Z,30.20
2017-09-05T12:05:48.792Z,29.80
2017-09-05T12:08:17.069Z,29.70
2017-09-05T12:10:45.394Z,29.20
2017-09-05T12:13:13.692Z,29.30
2017-09-05T12:18:11.779Z,63.50
2017-09-05T12:20:41.412Z,57.30
2017-09-05T12:23:09.957Z,56.40
2017-09-05T12:25:38.284Z,54.80
2017-09-05T12:28:06.938Z,29.70
2017-09-05T12:30:36.994Z,58.00
2017-09-05T12:33:05.609Z,58.00
2017-09-05T12:38:03.449Z,26.20
2017-09-05T12:40:32.059Z,26.20
2017-09-05T12:45:29.910Z,26.10
2017-09-05T12:47:59.457Z,26.70
2017-09-05T12:50:27.755Z,26.50
2017-09-05T12:52:56.134Z,36.20
2017-09-05T12:55:24.517Z,28.80
2017-09-05T12:57:53.409Z,25.50
2017-09-05T13:00:21.992Z,24.40
2017-09-05T13:02:50.317Z,23.70
2017-09-05T13:05:18.651Z,24.00
2017-09-05T13:07:47.030Z,23.70
2017-09-05T13:10:15.324Z,23.70
2017-09-05T13:12:44.400Z,23.10
2017-09-05T13:15:13.062Z,22.90
2017-09-05T13:17:41.376Z,23.20
2017-09-05T13:20:09.669Z,23.10
2017-09-05T13:22:38.675Z,21.90
2017-09-05T13:25:08.729Z,21.70
2017-09-05T13:27:37.060Z,22.10
2017-09-05T13:30:05.815Z,22.00
2017-09-05T13:32:34.158Z,22.20
2017-09-05T13:35:03.673Z,21.20
2017-09-05T13:37:33.078Z,21.70
2017-09-05T13:40:02.175Z,21.80
2017-09-05T13:42:30.501Z,21.80
2017-09-05T13:45:00.239Z,22.10
2017-09-05T13:47:28.975Z,23.40
2017-09-05T13:49:57.534Z,23.70
2017-09-05T13:52:25.874Z,23.20
2017-09-05T13:54:54.941Z,23.70
2017-09-05T13:57:23.264Z,23.40
2017-09-05T13:59:51.569Z,23.20
2017-09-05T14:02:20.173Z,23.40
2017-09-05T14:04:48.504Z,23.10
2017-09-05T14:07:17.662Z,23.60
2017-09-05T14:09:46.249Z,23.50
2017-09-05T14:12:14.640Z,23.50
2017-09-05T14:14:44.880Z,23.00
2017-09-05T14:17:14.330Z,23.00
2017-09-05T14:19:42.638Z,22.90
2017-09-05T14:22:11.830Z,23.00
2017-09-05T14:24:40.126Z,23.30
2017-09-05T14:27:08.418Z,22.70
2017-09-05T14:29:36.803Z,22.80
2017-09-05T14:32:05.990Z,22.90
2017-09-05T14:34:34.686Z,21.90
2017-09-05T14:37:02.989Z,21.40
2017-09-05T14:39:31.343Z,21.20
2017-09-05T14:42:00.011Z,21.00
2017-09-05T14:44:28.324Z,21.10
2017-09-05T14:46:56.645Z,21.00
2017-09-05T14:49:26.037Z,21.40
2017-09-05T14:51:54.348Z,21.70
2017-09-05T14:54:22.974Z,22.00
2017-09-05T14:56:51.305Z,22.20
2017-09-05T14:59:19.589Z,22.40
2017-09-05T15:01:47.877Z,23.20
2017-09-05T15:04:16.585Z,23.90
2017-09-05T15:06:45.320Z,23.00
2017-09-05T15:09:14.225Z,23.00
2017-09-05T15:11:42.512Z,29.00
2017-09-05T15:14:11.799Z,38.50
2017-09-05T15:16:40.180Z,22.30
2017-09-05T15:19:08.748Z,22.10
2017-09-05T15:21:37.135Z,22.20
2017-09-05T15:24:05.445Z,22.50
2017-09-05T15:26:34.115Z,22.50
2017-09-05T15:29:02.409Z,22.90
2017-09-05T15:31:30.702Z,22.90
2017-09-05T15:33:59.587Z,23.10
2017-09-05T15:36:29.059Z,26.00
2017-09-05T15:38:57.672Z,26.00
2017-09-05T15:41:25.968Z,24.40
2017-09-05T15:43:54.230Z,22.60
2017-09-05T15:46:22.921Z,23.00
2017-09-05T15:48:51.190Z,23.20
2017-09-05T15:51:19.459Z,23.60
2017-09-05T15:53:47.759Z,24.20
2017-09-05T15:56:16.154Z,24.90
2017-09-05T15:58:44.841Z,25.20
2017-09-05T16:01:13.493Z,26.40
2017-09-05T16:03:42.680Z,27.10
2017-09-05T16:06:11.329Z,27.80
2017-09-05T16:08:39.607Z,28.60
2017-09-05T16:11:07.881Z,29.40
2017-09-05T16:13:36.174Z,29.90
2017-09-05T16:16:04.459Z,30.80
2017-09-05T16:18:33.165Z,32.10
2017-09-05T16:21:03.051Z,33.40
2017-09-05T16:23:31.902Z,34.20
2017-09-05T16:26:00.191Z,35.20
2017-09-05T16:28:28.518Z,36.00
2017-09-05T16:30:57.120Z,37.80
2017-09-05T16:33:25.747Z,39.50
2017-09-05T16:35:54.030Z,40.50
2017-09-05T16:38:22.355Z,41.60
2017-09-05T16:40:50.859Z,42.50
2017-09-05T16:43:19.420Z,43.30
2017-09-05T16:45:47.714Z,44.10
2017-09-05T16:48:15.996Z,45.10
2017-09-05T16:50:44.587Z,46.20
2017-09-05T16:53:12.877Z,46.80
2017-09-05T16:55:42.187Z,47.40
2017-09-05T16:58:10.844Z,48.30
2017-09-05T17:00:39.138Z,49.10
2017-09-05T17:03:08.780Z,50.00
2017-09-05T17:05:37.339Z,51.10
2017-09-05T17:08:06.080Z,51.90
2017-09-05T17:10:34.749Z,52.60
2017-09-05T17:13:03.177Z,52.90
2017-09-05T17:15:32.114Z,53.50
2017-09-05T17:18:00.690Z,54.30
2017-09-05T17:20:29.641Z,55.00
2017-09-05T17:22:58.772Z,55.80
2017-09-05T17:25:27.069Z,56.20
2017-09-05T17:27:55.472Z,57.10
2017-09-05T17:30:24.148Z,58.20
2017-09-05T17:32:52.503Z,59.50
2017-09-05T17:35:21.498Z,61.00
2017-09-05T17:37:49.920Z,62.80
2017-09-05T17:40:19.057Z,64.10
2017-09-05T17:42:47.687Z,65.10
2017-09-05T17:45:15.999Z,66.50
2017-09-05T17:47:45.354Z,68.50
2017-09-05T17:50:14.018Z,69.70
2017-09-05T17:52:42.309Z,71.80
2017-09-05T17:55:11.197Z,72.60
2017-09-05T17:57:39.961Z,73.90
2017-09-05T18:00:08.963Z,75.40
2017-09-05T18:02:38.258Z,76.30
2017-09-05T18:05:06.949Z,78.10
2017-09-05T18:07:35.359Z,79.70
2017-09-05T18:10:03.756Z,80.50
2017-09-05T18:12:32.430Z,81.20
2017-09-05T18:15:00.735Z,82.10
2017-09-05T18:17:29.384Z,81.40
2017-09-05T18:19:58.501Z,81.00
2017-09-05T18:22:27.573Z,81.30
2017-09-05T18:24:56.690Z,81.10
2017-09-05T18:27:25.042Z,81.40
2017-09-05T18:29:53.647Z,81.90
2017-09-05T18:32:21.935Z,83.20
2017-09-05T18:34:50.249Z,84.50
2017-09-05T18:37:18.614Z,83.80
2017-09-05T18:39:47.413Z,85.20
2017-09-05T18:42:16.097Z,86.30
2017-09-05T18:44:45.101Z,88.80
2017-09-05T18:47:13.792Z,88.50
2017-09-05T18:49:42.443Z,89.80
2017-09-05T18:52:10.852Z,90.00
2017-09-05T18:54:39.137Z,90.40
2017-09-05T18:57:07.815Z,91.10
2017-09-05T18:59:36.106Z,91.00
2017-09-05T19:02:04.387Z,91.10
2017-09-05T19:04:33.103Z,91.00
2017-09-05T19:07:01.408Z,90.80
2017-09-05T19:09:30.472Z,91.00
2017-09-05T19:11:58.792Z,91.80
2017-09-05T19:14:27.087Z,91.60
2017-09-05T19:16:56.252Z,91.80
2017-09-05T19:19:25.939Z,92.40
2017-09-05T19:21:54.663Z,92.40
2017-09-05T19:24:23.615Z,92.80
2017-09-05T19:26:52.198Z,93.00
2017-09-05T19:29:21.000Z,93.00
2017-09-05T19:31:49.291Z,93.20
2017-09-05T19:34:17.958Z,93.50
2017-09-05T19:36:46.580Z,93.70
2017-09-05T19:39:14.869Z,93.60
2017-09-05T19:41:43.222Z,93.80
2017-09-05T19:44:11.732Z,94.00
2017-09-05T19:46:40.976Z,94.10
2017-09-05T19:49:09.392Z,94.10
2017-09-05T19:51:37.647Z,94.30
2017-09-05T19:54:06.006Z,94.50
2017-09-05T19:56:34.432Z,94.50
2017-09-05T19:59:03.021Z,94.50
2017-09-05T20:01:31.571Z,94.70
2017-09-05T20:04:00.804Z,95.10
2017-09-05T20:06:29.187Z,95.10
2017-09-05T20:08:57.497Z,95.10
2017-09-05T20:11:26.156Z,95.40
2017-09-05T20:13:55.056Z,95.70
2017-09-05T20:16:23.345Z,95.80
2017-09-05T20:18:51.924Z,96.20
2017-09-05T20:21:20.791Z,96.30
2017-09-05T20:23:49.086Z,96.40
2017-09-05T20:26:17.864Z,96.40
2017-09-05T20:28:46.161Z,96.50
2017-09-05T20:31:14.985Z,96.80
2017-09-05T20:33:44.098Z,96.90
2017-09-05T20:36:13.242Z,97.10
2017-09-05T20:38:41.545Z,97.30
2017-09-05T20:41:10.144Z,97.20
2017-09-05T20:43:38.445Z,97.40
2017-09-05T20:46:07.138Z,97.60
2017-09-05T20:48:35.722Z,98.10
2017-09-05T20:51:04.312Z,98.40
2017-09-05T20:53:32.608Z,98.50
2017-09-05T20:56:02.004Z,98.60
2017-09-05T20:58:30.330Z,98.90
2017-09-05T21:00:58.636Z,99.10
2017-09-05T21:03:27.378Z,99.10
2017-09-05T21:05:55.672Z,99.00
2017-09-05T21:08:25.147Z,99.20
2017-09-05T21:10:54.078Z,98.80
2017-09-05T21:13:23.403Z,98.80
2017-09-05T21:15:52.601Z,99.50
2017-09-05T21:18:20.895Z,99.60
2017-09-05T21:20:49.216Z,99.90
2017-09-05T21:23:18.429Z,99.90
2017-09-05T21:25:46.835Z,99.90
2017-09-05T21:28:16.203Z,99.90
2017-09-05T21:30:44.916Z,99.90
2017-09-05T21:33:14.033Z,99.90
2017-09-05T21:35:42.928Z,99.90
2017-09-05T21:38:11.205Z,99.90
2017-09-05T21:40:40.571Z,99.90
2017-09-05T21:43:08.888Z,99.90
2017-09-05T21:45:37.370Z,99.90
2017-09-05T21:48:06.826Z,99.90
2017-09-05T21:50:35.232Z,99.90
2017-09-05T21:53:03.749Z,99.90
2017-09-05T21:55:33.840Z,99.90
2017-09-05T21:58:02.957Z,99.90
2017-09-05T22:00:31.252Z,99.90
2017-09-05T22:02:59.882Z,99.90
2017-09-05T22:05:28.768Z,99.90
2017-09-05T22:07:57.073Z,99.90
2017-09-05T22:10:25.691Z,99.90
2017-09-05T22:12:53.993Z,99.90
2017-09-05T22:15:28.286Z,99.90
2017-09-05T22:17:56.589Z,99.90
2017-09-05T22:20:30.999Z,99.90
2017-09-05T22:22:59.290Z,99.90
2017-09-05T22:25:33.534Z,99.90
2017-09-05T22:28:08.568Z,99.90
2017-09-05T22:30:37.574Z,99.90
2017-09-05T22:33:05.862Z,99.90
2017-09-05T22:35:34.188Z,99.90
2017-09-05T22:38:02.785Z,99.90
2017-09-05T22:40:31.159Z,99.90
2017-09-05T22:42:59.427Z,99.90
2017-09-05T22:45:28.053Z,99.90
2017-09-05T22:47:56.358Z,99.90
2017-09-05T22:50:24.685Z,99.90
2017-09-05T22:52:53.072Z,99.90
2017-09-05T22:55:21.791Z,99.90
2017-09-05T22:57:50.952Z,99.90
2017-09-05T23:00:19.296Z,99.90
2017-09-05T23:02:47.587Z,99.90
2017-09-05T23:05:15.928Z,99.90
2017-09-05T23:07:44.284Z,99.90
2017-09-05T23:10:12.991Z,99.90
2017-09-05T23:12:42.068Z,99.90
2017-09-05T23:15:10.351Z,99.90
2017-09-05T23:17:39.455Z,99.90
2017-09-05T23:20:08.302Z,99.90
2017-09-05T23:22:37.475Z,99.90
2017-09-05T23:25:05.791Z,99.90
2017-09-05T23:27:34.854Z,99.90
2017-09-05T23:30:04.268Z,99.90
2017-09-05T23:32:32.552Z,99.90
2017-09-05T23:35:00.848Z,99.90
2017-09-05T23:37:29.601Z,99.90
2017-09-05T23:39:57.932Z,99.90
2017-09-05T23:42:26.560Z,99.90
2017-09-05T23:44:55.527Z,99.90
2017-09-05T23:47:24.223Z,99.90
2017-09-05T23:49:52.539Z,99.90
2017-09-05T23:52:20.831Z,99.90
2017-09-05T23:54:49.417Z,99.90
2017-09-05T23:57:17.717Z,99.90
2017-09-05T23:59:46.017Z,99.90
